createdAt,value
2022-08-17T00:00:34.532Z,80.20
2022-08-17T00:05:40.606Z,80.31
2022-08-17T00:10:40.490Z,80.36
2022-08-17T00:15:40.072Z,80.53
2022-08-17T00:20:39.353Z,80.75
2022-08-17T00:25:38.369Z,80.89
2022-08-17T00:30:51.068Z,81.04
2022-08-17T00:35:53.404Z,81.14
2022-08-17T00:40:59.054Z,81.29
2022-08-17T00:45:59.742Z,81.39
2022-08-17T00:51:11.325Z,81.50
2022-08-17T00:56:17.147Z,81.64
2022-08-17T01:01:21.368Z,81.80
2022-08-17T01:06:22.983Z,81.95
2022-08-17T01:11:22.461Z,82.07
2022-08-17T01:16:25.589Z,82.07
2022-08-17T01:21:34.806Z,82.19
2022-08-17T01:26:36.067Z,82.36
2022-08-17T01:31:41.705Z,82.56
2022-08-17T01:36:43.030Z,82.82
2022-08-17T01:41:43.705Z,83.03
2022-08-17T01:46:43.519Z,83.18
2022-08-17T01:51:42.835Z,83.19
2022-08-17T01:56:47.101Z,83.29
2022-08-17T02:01:47.134Z,83.31
2022-08-17T02:06:53.102Z,83.27
2022-08-17T02:11:54.218Z,83.56
2022-08-17T02:16:53.127Z,83.43
2022-08-17T02:21:55.285Z,83.34
2022-08-17T02:26:54.213Z,83.37
2022-08-17T02:31:52.827Z,83.43
2022-08-17T02:36:53.491Z,83.53
2022-08-17T02:42:01.192Z,83.57
2022-08-17T02:46:59.878Z,83.64
2022-08-17T02:51:59.474Z,83.75
2022-08-17T02:56:58.317Z,83.91
2022-08-17T03:01:57.448Z,84.03
2022-08-17T03:06:55.984Z,84.04
2022-08-17T03:11:56.223Z,84.03
2022-08-17T03:16:55.165Z,84.14
2022-08-17T03:21:55.413Z,84.30
2022-08-17T03:26:54.142Z,84.51
2022-08-17T03:31:53.727Z,84.61
2022-08-17T03:36:52.185Z,84.66
2022-08-17T03:41:50.903Z,84.74
2022-08-17T03:47:07.161Z,84.78
2022-08-17T03:52:23.669Z,84.83
2022-08-17T03:57:23.156Z,84.96
2022-08-17T04:02:25.625Z,85.04
2022-08-17T04:07:31.811Z,85.07
2022-08-17T04:12:43.599Z,85.17
2022-08-17T04:17:44.300Z,85.23
2022-08-17T04:22:55.837Z,85.28
2022-08-17T04:27:55.228Z,85.31
2022-08-17T04:33:07.235Z,85.32
2022-08-17T04:38:07.546Z,85.30
2022-08-17T04:43:10.487Z,85.18
2022-08-17T04:48:10.500Z,85.08
2022-08-17T04:53:09.380Z,85.00
2022-08-17T04:58:09.270Z,84.93
2022-08-17T05:03:09.307Z,84.82
2022-08-17T05:08:10.145Z,84.75
2022-08-17T05:13:12.507Z,84.63
2022-08-17T05:18:12.723Z,84.49
2022-08-17T05:23:16.161Z,84.24
2022-08-17T05:28:16.157Z,83.86
2022-08-17T05:33:19.146Z,83.38
2022-08-17T05:38:20.218Z,82.98
2022-08-17T05:43:23.655Z,82.68
2022-08-17T05:48:22.444Z,82.61
2022-08-17T05:53:50.461Z,82.35
2022-08-17T05:59:12.149Z,82.07
2022-08-17T06:04:29.661Z,81.85
2022-08-17T06:09:41.278Z,81.59
2022-08-17T06:15:19.704Z,81.24
2022-08-17T06:20:19.939Z,80.83
2022-08-17T06:25:24.212Z,80.33
2022-08-17T06:30:27.984Z,79.86
2022-08-17T06:35:37.957Z,79.45
2022-08-17T06:41:00.865Z,78.95
2022-08-17T06:46:07.239Z,78.32
2022-08-17T06:51:19.803Z,77.39
2022-08-17T06:56:54.669Z,76.61
2022-08-17T07:01:56.888Z,76.02
2022-08-17T07:07:22.219Z,75.26
2022-08-17T07:12:30.013Z,74.77
2022-08-17T07:17:36.988Z,74.69
2022-08-17T07:22:59.632Z,74.56
2022-08-17T07:28:03.880Z,73.25
2022-08-17T07:33:20.448Z,72.72
2022-08-17T07:38:26.896Z,73.04
2022-08-17T07:43:29.733Z,72.11
2022-08-17T07:48:36.427Z,71.90
2022-08-17T07:53:34.814Z,70.83
2022-08-17T07:58:34.190Z,70.31
2022-08-17T08:03:34.186Z,70.32
2022-08-17T08:08:44.339Z,70.04
2022-08-17T08:13:46.202Z,69.65
2022-08-17T08:18:55.663Z,69.41
2022-08-17T08:24:11.093Z,69.28
2022-08-17T08:29:28.255Z,67.68
2022-08-17T08:35:00.735Z,67.73
2022-08-17T08:40:11.750Z,67.43
2022-08-17T08:45:21.698Z,67.01
2022-08-17T08:50:40.388Z,65.71
2022-08-17T08:55:56.308Z,65.75
2022-08-17T09:01:00.130Z,65.17
2022-08-17T09:06:37.729Z,64.78
2022-08-17T09:12:01.952Z,64.10
2022-08-17T09:17:13.810Z,62.28
2022-08-17T09:22:31.605Z,62.58
2022-08-17T09:27:51.734Z,62.32
2022-08-17T09:32:57.914Z,61.09
2022-08-17T09:38:04.970Z,60.06
2022-08-17T09:43:13.547Z,58.91
2022-08-17T09:48:19.122Z,56.13
2022-08-17T09:53:18.117Z,55.22
2022-08-17T09:58:31.810Z,54.72
2022-08-17T10:04:07.320Z,52.83
2022-08-17T10:09:16.198Z,50.92
2022-08-17T10:14:37.537Z,49.85
2022-08-17T10:19:53.402Z,50.95
2022-08-17T10:25:23.459Z,52.25
2022-08-17T10:30:29.180Z,53.33
2022-08-17T10:35:42.695Z,54.85
2022-08-17T10:40:55.442Z,54.46
2022-08-17T10:46:09.450Z,54.08
2022-08-17T10:51:42.431Z,54.22
2022-08-17T10:56:53.481Z,53.42
2022-08-17T11:02:17.003Z,52.08
2022-08-17T11:07:34.939Z,49.11
2022-08-17T11:13:02.530Z,44.43
2022-08-17T11:18:38.989Z,43.58
2022-08-17T11:24:22.174Z,46.60
2022-08-17T11:29:31.470Z,47.88
2022-08-17T11:34:33.105Z,47.53
2022-08-17T11:40:08.254Z,47.03
2022-08-17T11:45:34.625Z,45.78
2022-08-17T11:51:09.450Z,47.33
2022-08-17T11:56:13.505Z,49.81
2022-08-17T12:01:34.873Z,48.99
2022-08-17T12:06:46.389Z,50.04
2022-08-17T12:12:04.644Z,49.62
2022-08-17T12:17:14.325Z,47.46
2022-08-17T12:22:37.974Z,45.55
2022-08-17T12:28:06.719Z,44.40
2022-08-17T12:33:25.430Z,41.92
2022-08-17T12:38:33.214Z,40.20
2022-08-17T12:43:33.913Z,39.48
2022-08-17T12:48:34.807Z,38.08
2022-08-17T12:53:37.061Z,37.53
2022-08-17T12:58:53.630Z,36.77
2022-08-17T13:03:59.989Z,34.72
2022-08-17T13:09:09.543Z,34.56
2022-08-17T13:14:18.502Z,34.44
2022-08-17T13:19:40.007Z,36.12
2022-08-17T13:24:53.320Z,36.93
2022-08-17T13:29:59.748Z,35.12
2022-08-17T13:35:12.051Z,33.24
2022-08-17T13:40:53.377Z,33.83
2022-08-17T13:45:54.809Z,33.09
2022-08-17T13:51:38.391Z,33.95
2022-08-17T13:56:59.805Z,36.67
2022-08-17T14:01:58.935Z,37.44
2022-08-17T14:07:03.173Z,36.44
2022-08-17T14:12:04.558Z,35.72
2022-08-17T14:17:03.839Z,35.19
2022-08-17T14:22:03.633Z,35.12
2022-08-17T14:27:05.718Z,35.37
2022-08-17T14:32:18.424Z,33.81
2022-08-17T14:37:18.197Z,35.33
2022-08-17T14:42:17.674Z,34.54
2022-08-17T14:47:16.897Z,34.96
2022-08-17T14:52:21.927Z,34.97
2022-08-17T14:57:25.893Z,34.42
2022-08-17T15:02:44.130Z,34.53
2022-08-17T15:07:44.548Z,36.19
2022-08-17T15:12:44.491Z,36.69
2022-08-17T15:17:46.068Z,36.63
2022-08-17T15:22:50.054Z,36.93
2022-08-17T15:27:49.714Z,36.01
2022-08-17T15:32:54.100Z,36.08
2022-08-17T15:37:54.222Z,36.40
2022-08-17T15:42:53.217Z,37.47
2022-08-17T15:47:52.711Z,37.26
2022-08-17T15:52:58.178Z,37.38
2022-08-17T15:57:57.353Z,37.56
2022-08-17T16:03:45.049Z,38.19
2022-08-17T16:08:20.864Z,38.51
2022-08-17T16:13:21.326Z,38.91
2022-08-17T16:18:20.651Z,39.26
2022-08-17T16:23:20.822Z,39.36
2022-08-17T16:28:21.960Z,39.67
2022-08-17T16:33:21.694Z,39.74
2022-08-17T16:38:21.192Z,39.96
2022-08-17T16:43:20.645Z,40.56
2022-08-17T16:48:20.173Z,41.03
2022-08-17T16:53:21.986Z,41.47
2022-08-17T16:58:20.431Z,41.99
2022-08-17T17:03:24.350Z,42.74
2022-08-17T17:08:31.646Z,43.51
2022-08-17T17:13:38.996Z,44.04
2022-08-17T17:18:43.754Z,44.81
2022-08-17T17:23:56.034Z,45.81
2022-08-17T17:29:11.673Z,46.84
2022-08-17T17:34:17.358Z,47.96
2022-08-17T17:39:21.549Z,49.30
2022-08-17T17:44:27.519Z,50.63
2022-08-17T17:49:27.526Z,51.95
2022-08-17T17:54:54.340Z,53.22
2022-08-17T18:00:13.443Z,54.43
2022-08-17T18:05:22.683Z,55.47
2022-08-17T18:10:34.009Z,56.36
2022-08-17T18:15:41.451Z,57.03
2022-08-17T18:20:40.943Z,57.69
2022-08-17T18:25:55.678Z,58.21
2022-08-17T18:31:14.809Z,58.69
2022-08-17T18:36:14.877Z,59.31
2022-08-17T18:41:30.520Z,60.01
2022-08-17T18:46:37.651Z,60.51
2022-08-17T18:51:41.864Z,61.35
2022-08-17T18:56:44.884Z,62.08
2022-08-17T19:02:16.063Z,62.61
2022-08-17T19:07:33.676Z,63.24
2022-08-17T19:12:40.474Z,64.07
2022-08-17T19:17:49.282Z,64.41
2022-08-17T19:23:24.243Z,64.79
2022-08-17T19:28:29.846Z,65.21
2022-08-17T19:33:31.437Z,65.49
2022-08-17T19:38:46.564Z,66.03
2022-08-17T19:44:07.227Z,66.40
2022-08-17T19:49:18.167Z,66.90
2022-08-17T19:54:27.392Z,67.36
2022-08-17T19:59:49.601Z,67.89
2022-08-17T20:04:53.920Z,67.97
2022-08-17T20:10:04.271Z,67.99
2022-08-17T20:15:09.993Z,68.36
2022-08-17T20:20:26.879Z,68.57
2022-08-17T20:25:39.616Z,68.83
2022-08-17T20:30:43.879Z,69.19
2022-08-17T20:36:05.063Z,69.61
2022-08-17T20:41:18.212Z,69.90
2022-08-17T20:46:51.633Z,69.95
2022-08-17T20:52:07.825Z,70.53
2022-08-17T20:57:13.979Z,70.71
2022-08-17T21:02:24.726Z,70.85
2022-08-17T21:07:46.108Z,71.15
2022-08-17T21:12:49.370Z,71.18
2022-08-17T21:18:11.092Z,71.47
2022-08-17T21:23:28.246Z,71.67
2022-08-17T21:28:59.881Z,71.75
2022-08-17T21:34:29.715Z,71.91
2022-08-17T21:39:42.307Z,72.29
2022-08-17T21:44:48.229Z,72.41
2022-08-17T21:49:47.390Z,72.57
2022-08-17T21:54:53.266Z,72.54
2022-08-17T21:59:58.108Z,72.67
2022-08-17T22:05:06.905Z,72.81
2022-08-17T22:10:09.200Z,73.00
2022-08-17T22:15:17.741Z,73.30
2022-08-17T22:20:21.884Z,73.43
2022-08-17T22:25:29.904Z,73.47
2022-08-17T22:30:38.491Z,73.60
2022-08-17T22:35:50.244Z,73.83
2022-08-17T22:40:54.928Z,74.00
2022-08-17T22:45:58.324Z,74.19
2022-08-17T22:51:16.014Z,74.48
2022-08-17T22:56:41.266Z,74.64
2022-08-17T23:01:40.768Z,74.76
2022-08-17T23:06:43.009Z,75.04
2022-08-17T23:11:49.943Z,75.18
2022-08-17T23:16:50.389Z,75.35
2022-08-17T23:21:50.610Z,75.50
2022-08-17T23:26:49.531Z,75.68
2022-08-17T23:31:49.493Z,75.89
2022-08-17T23:36:53.380Z,76.11
2022-08-17T23:41:54.123Z,76.35
2022-08-17T23:46:53.802Z,76.54
2022-08-17T23:51:54.968Z,76.72
2022-08-17T23:56:54.459Z,76.92
